Time;durP1;ratioP1;P1;durP2;ratioP2;P2;SDS_P1;SDS_P2;PMS_P1;PMS_P2;Temp;Humidity;BMP_temperature;BMP_pressure;BME280_temperature;BME280_humidity;BME280_pressure;Samples;Min_cycle;Max_cycle;Signal;HPM_P1;HPM_P2
2022/07/27 00:03:44;;;;;;;5.20;4.80;;;14.80;99.90;;;;;;2614415;54;20184;-75
2022/07/27 00:09:32;;;;;;;5.67;4.60;;;14.60;99.90;;;;;;2615005;54;20492;-75
2022/07/27 00:15:20;;;;;;;5.27;4.50;;;14.50;99.90;;;;;;2613615;54;20130;-76
2022/07/27 00:21:08;;;;;;;4.87;4.47;;;14.50;99.90;;;;;;2614168;54;20334;-75
2022/07/27 00:26:55;;;;;;;5.03;4.70;;;14.40;99.90;;;;;;2613772;54;20162;-76
2022/07/27 00:32:37;;;;;;;7.13;4.77;;;14.40;99.90;;;;;;2613361;54;20781;-74
2022/07/27 00:38:25;;;;;;;5.10;4.67;;;14.40;99.90;;;;;;2614405;54;21063;-75
2022/07/27 00:44:13;;;;;;;5.23;4.73;;;14.40;99.90;;;;;;2615362;54;20126;-74
2022/07/27 00:50:01;;;;;;;4.57;4.27;;;14.30;99.90;;;;;;2614291;54;20134;-74
2022/07/27 00:55:49;;;;;;;4.63;4.33;;;14.40;99.90;;;;;;2614777;54;20512;-75
2022/07/27 01:01:36;;;;;;;5.23;4.70;;;14.40;99.90;;;;;;2614053;54;20134;-77
2022/07/27 01:07:25;;;;;;;5.13;4.77;;;14.20;99.90;;;;;;2615405;54;21856;-77
2022/07/27 01:13:15;;;;;;;8.80;4.13;;;14.30;99.90;;;;;;2615384;54;21013;-77
2022/07/27 01:19:02;;;;;;;6.80;5.43;;;14.10;99.90;;;;;;2614734;54;20380;-76
2022/07/27 01:24:50;;;;;;;11.00;5.07;;;14.10;99.90;;;;;;2615331;54;20158;-77
2022/07/27 01:34:44;;;;;;;6.63;5.37;;;14.20;99.90;;;;;;2615987;54;20371;-76
2022/07/27 01:40:32;;;;;;;4.80;4.40;;;14.00;99.90;;;;;;2615422;39;20787;-76
2022/07/27 01:46:21;;;;;;;6.00;4.80;;;14.00;99.90;;;;;;2613777;54;20529;-77
2022/07/27 01:52:09;;;;;;;6.40;5.30;;;13.90;99.90;;;;;;2615778;54;20391;-76
2022/07/27 01:57:57;;;;;;;5.63;5.20;;;13.80;99.90;;;;;;2614488;54;20162;-78
2022/07/27 02:03:45;;;;;;;5.50;5.10;;;13.80;99.90;;;;;;2615521;54;20130;-77
2022/07/27 02:09:32;;;;;;;6.30;5.70;;;13.70;99.90;;;;;;2615515;54;20204;-77
2022/07/27 02:15:23;;;;;;;5.90;5.30;;;13.60;99.90;;;;;;2615876;54;20152;-77
2022/07/27 02:21:12;;;;;;;5.77;5.33;;;13.50;99.90;;;;;;2615168;54;20520;-77
2022/07/27 02:27:00;;;;;;;8.37;5.67;;;13.30;99.90;;;;;;2614505;54;20540;-76
2022/07/27 02:30:13;;;;;;;6.23;5.73;;;13.30;99.90;;;;;;2615410;47;20455;-75
2022/07/27 02:32:41;;;;;;;6.30;5.47;;;13.20;99.90;;;;;;2613873;47;21989;-77
2022/07/27 02:38:28;;;;;;;6.20;5.60;;;13.00;99.90;;;;;;2613703;54;20961;-77
2022/07/27 02:44:17;;;;;;;6.13;5.63;;;12.80;99.90;;;;;;2615237;54;20122;-76
2022/07/27 02:50:06;;;;;;;10.20;6.20;;;12.50;99.90;;;;;;2615370;31;20901;-76
2022/07/27 02:55:53;;;;;;;8.63;6.17;;;12.60;99.90;;;;;;2615181;54;20385;-77
2022/07/27 03:01:41;;;;;;;15.53;6.60;;;12.40;99.90;;;;;;2614640;54;20189;-77
2022/07/27 03:07:29;;;;;;;6.57;6.07;;;12.50;99.90;;;;;;2614074;54;20160;-77
2022/07/27 03:13:16;;;;;;;10.23;6.23;;;12.40;99.90;;;;;;2615218;54;20265;-76
2022/07/27 03:19:05;;;;;;;11.80;5.63;;;12.50;99.90;;;;;;2615401;54;20129;-77
2022/07/27 03:24:52;;;;;;;7.57;7.00;;;12.60;99.90;;;;;;2613521;54;20408;-77
2022/07/27 03:34:46;;;;;;;6.63;6.03;;;12.60;99.90;;;;;;2615399;54;20394;-76
2022/07/27 03:40:34;;;;;;;6.10;5.70;;;12.70;99.90;;;;;;2613330;54;20395;-77
2022/07/27 03:46:21;;;;;;;6.03;5.53;;;12.70;99.90;;;;;;2613396;54;20657;-76
2022/07/27 03:52:09;;;;;;;6.97;6.27;;;12.70;99.90;;;;;;2614961;54;20159;-77
2022/07/27 03:57:57;;;;;;;6.83;6.20;;;12.80;99.90;;;;;;2614848;54;20130;-78
2022/07/27 04:03:45;;;;;;;7.00;6.50;;;12.60;99.90;;;;;;2615555;39;20517;-75
2022/07/27 04:09:33;;;;;;;7.53;6.77;;;12.70;99.90;;;;;;2614636;54;20155;-76
2022/07/27 04:15:21;;;;;;;7.83;7.13;;;12.60;99.90;;;;;;2613333;54;20403;-77
2022/07/27 04:21:08;;;;;;;8.10;7.30;;;12.60;99.90;;;;;;2614495;54;20155;-77
2022/07/27 04:26:56;;;;;;;6.60;6.00;;;12.60;99.90;;;;;;2614024;54;20193;-77
2022/07/27 04:30:13;;;;;;;7.60;6.30;;;12.60;99.90;;;;;;2614353;39;20944;-78
2022/07/27 04:32:39;;;;;;;6.00;5.60;;;12.60;99.90;;;;;;2614544;54;20158;-77
2022/07/27 04:38:26;;;;;;;7.07;6.47;;;12.50;99.90;;;;;;2614092;46;20137;-77
2022/07/27 04:44:14;;;;;;;7.40;6.80;;;12.60;99.90;;;;;;2614086;54;20188;-77
2022/07/27 04:50:03;;;;;;;10.13;6.60;;;12.70;99.90;;;;;;2614629;54;20167;-76
2022/07/27 04:55:51;;;;;;;10.50;6.60;;;13.50;99.90;;;;;;2614334;54;20371;-76
2022/07/27 05:01:38;;;;;;;8.73;7.27;;;13.80;99.90;;;;;;2613160;54;20157;-76
2022/07/27 05:07:26;;;;;;;8.47;6.63;;;13.90;99.90;;;;;;2614035;46;20159;-77
2022/07/27 05:13:14;;;;;;;11.30;6.10;;;14.30;99.90;;;;;;2614706;54;20163;-80
2022/07/27 05:19:01;;;;;;;5.47;5.00;;;14.60;99.90;;;;;;2612221;54;20252;-77
2022/07/27 05:24:49;;;;;;;6.20;5.20;;;15.00;99.90;;;;;;2612176;39;20534;-77
2022/07/27 05:34:46;;;;;;;5.70;5.20;;;16.50;99.90;;;;;;2615481;31;20838;-76
2022/07/27 05:40:34;;;;;;;6.33;5.73;;;17.00;99.90;;;;;;2612695;54;20405;-76
2022/07/27 05:46:22;;;;;;;5.53;5.03;;;18.30;99.90;;;;;;2613475;54;20654;-77
2022/07/27 05:52:09;;;;;;;5.57;5.07;;;18.20;99.90;;;;;;2614303;54;20423;-76
2022/07/27 05:57:57;;;;;;;5.60;5.10;;;17.80;99.90;;;;;;2614254;54;20160;-78
2022/07/27 06:03:45;;;;;;;6.17;5.77;;;18.20;99.90;;;;;;2615034;46;20133;-75
2022/07/27 06:09:32;;;;;;;6.63;5.93;;;18.40;91.70;;;;;;2613459;54;20134;-75
2022/07/27 06:15:21;;;;;;;5.20;4.60;;;18.20;84.50;;;;;;2613837;54;20322;-76
2022/07/27 06:21:09;;;;;;;5.77;5.27;;;18.70;65.80;;;;;;2614923;54;20433;-76
2022/07/27 06:26:57;;;;;;;7.60;5.40;;;18.70;58.60;;;;;;2614894;54;20151;-76
2022/07/27 06:30:13;;;;;;;8.67;5.37;;;19.00;58.60;;;;;;2614561;54;20412;-76
2022/07/27 06:32:40;;;;;;;6.63;5.67;;;18.60;62.00;;;;;;2611122;54;20188;-76
2022/07/27 06:38:28;;;;;;;5.60;5.20;;;19.30;49.90;;;;;;2612816;54;20401;-77
2022/07/27 06:44:15;;;;;;;6.50;5.37;;;18.80;50.60;;;;;;2615329;39;21032;-76
2022/07/27 06:50:04;;;;;;;5.23;4.93;;;19.80;39.30;;;;;;2614985;54;20155;-77
2022/07/27 06:55:52;;;;;;;8.13;5.00;;;18.80;37.10;;;;;;2614825;54;20416;-76
2022/07/27 07:01:39;;;;;;;5.30;4.90;;;19.40;38.60;;;;;;2614069;54;20402;-77
2022/07/27 07:07:27;;;;;;;6.10;5.00;;;20.60;26.80;;;;;;2613605;31;20612;-78
2022/07/27 07:13:15;;;;;;;7.33;5.10;;;20.60;26.80;;;;;;2614300;54;20152;-76
2022/07/27 07:19:04;;;;;;;6.90;5.27;;;19.40;30.60;;;;;;2614080;54;20378;-76
2022/07/27 07:24:52;;;;;;;6.07;5.60;;;20.70;24.70;;;;;;2614992;54;20359;-76
2022/07/27 07:34:48;;;;;;;5.47;4.83;;;20.40;20.50;;;;;;2614163;54;20394;-77
2022/07/27 07:40:36;;;;;;;6.57;5.97;;;19.70;21.50;;;;;;2614303;54;20414;-74
2022/07/27 07:46:24;;;;;;;10.20;5.93;;;20.20;20.60;;;;;;2613391;39;20578;-75
2022/07/27 07:52:12;;;;;;;6.07;5.57;;;19.40;26.70;;;;;;2613977;54;20130;-74
2022/07/27 07:58:00;;;;;;;5.67;5.27;;;20.20;21.10;;;;;;2613687;54;20499;-75
2022/07/27 08:03:48;;;;;;;6.93;6.27;;;21.20;14.50;;;;;;2614808;54;20363;-76
2022/07/27 08:09:36;;;;;;;5.30;5.10;;;21.50;10.60;;;;;;2613894;54;20130;-76
2022/07/27 08:15:24;;;;;;;5.53;5.20;;;22.70;7.50;;;;;;2613963;54;20139;-75
2022/07/27 08:21:12;;;;;;;5.93;5.63;;;21.70;6.90;;;;;;2614329;54;20367;-74
2022/07/27 08:27:00;;;;;;;6.63;6.20;;;20.40;9.40;;;;;;2613784;54;20148;-75
2022/07/27 08:30:15;;;;;;;6.40;6.00;;;20.40;11.70;;;;;;2614626;54;20442;-75
2022/07/27 08:32:57;;;;;;;6.30;5.70;;;20.10;9.60;;;;;;2614157;54;20147;-75
2022/07/27 08:38:44;;;;;;;6.67;6.27;;;20.00;9.50;;;;;;2614415;54;20395;-74
2022/07/27 08:44:33;;;;;;;6.40;6.00;;;21.70;6.40;;;;;;2613779;54;20118;-74
2022/07/27 08:50:22;;;;;;;6.20;5.90;;;21.60;2.00;;;;;;2614758;46;20424;-75
2022/07/27 08:56:11;;;;;;;6.07;5.67;;;23.30;1.00;;;;;;2614865;54;20438;-74
2022/07/27 09:01:59;;;;;;;6.67;6.30;;;24.20;1.00;;;;;;2613990;54;20400;-75
2022/07/27 09:07:48;;;;;;;7.40;7.00;;;23.30;1.00;;;;;;2613388;54;20130;-77
2022/07/27 09:13:36;;;;;;;6.40;6.00;;;22.00;1.00;;;;;;2613220;54;20399;-74
2022/07/27 09:19:23;;;;;;;7.23;6.73;;;20.50;1.00;;;;;;2614489;39;20793;-74
2022/07/27 09:25:14;;;;;;;6.97;6.47;;;19.70;3.90;;;;;;2614456;54;20125;-75
2022/07/27 09:34:46;;;;;;;6.63;6.13;;;19.80;6.70;;;;;;2615219;54;20412;-74
2022/07/27 09:40:35;;;;;;;6.30;5.90;;;19.50;9.20;;;;;;2615294;54;20400;-74
2022/07/27 09:46:31;;;;;;;6.03;5.57;;;19.80;4.70;;;;;;2614424;54;20403;-75
2022/07/27 09:52:27;;;;;;;5.80;5.40;;;19.40;9.20;;;;;;2608830;39;20775;-74
2022/07/27 09:58:15;;;;;;;7.07;5.73;;;19.30;9.70;;;;;;2613327;54;20379;-75
2022/07/27 10:04:05;;;;;;;5.83;5.40;;;19.40;12.40;;;;;;2615194;54;20154;-74
2022/07/27 10:09:53;;;;;;;7.77;6.10;;;19.70;11.00;;;;;;2614217;54;20380;-74
2022/07/27 10:15:42;;;;;;;6.80;6.30;;;19.70;7.20;;;;;;2613248;54;20399;-75
2022/07/27 10:21:31;;;;;;;6.30;5.73;;;19.50;5.40;;;;;;2613740;54;20399;-75
2022/07/27 10:27:19;;;;;;;5.60;5.30;;;19.40;4.50;;;;;;2614833;54;20395;-75
2022/07/27 10:46:19;;;;;;;6.10;5.80;;;24.70;1.00;;;;;;2613042;54;20447;-76
2022/07/27 10:58:51;;;;;;;6.60;5.90;;;20.90;1.00;;;;;;2611745;54;20418;-75
2022/07/27 11:04:48;;;;;;;5.43;5.20;;;21.70;1.00;;;;;;2613232;54;20134;-75
2022/07/27 11:16:50;;;;;;;6.27;5.77;;;22.90;1.00;;;;;;2614102;54;20428;-74
2022/07/27 11:22:40;;;;;;;6.00;5.50;;;22.40;1.00;;;;;;2613159;54;20391;-75
2022/07/27 11:25:43;;;;;;;6.03;5.57;;;21.70;1.00;;;;;;2613342;39;20773;-75
2022/07/27 11:28:09;;;;;;;6.43;6.13;;;21.20;1.00;;;;;;2613805;47;20438;-75
2022/07/27 11:30:34;;;;;;;6.60;6.00;;;21.20;1.00;;;;;;2614466;39;20829;-75
2022/07/27 11:33:03;;;;;;;6.17;5.67;;;21.10;1.00;;;;;;2613993;47;20756;-75
2022/07/27 11:38:53;;;;;;;6.73;6.23;;;20.80;1.00;;;;;;2613766;54;20331;-76
2022/07/27 11:44:45;;;;;;;5.80;5.30;;;21.40;1.00;;;;;;2613337;54;20570;-75
2022/07/27 11:50:32;;;;;;;6.13;5.83;;;21.80;1.00;;;;;;2614846;54;20387;-75
2022/07/27 11:56:21;;;;;;;7.13;6.00;;;22.20;1.00;;;;;;2611293;46;21240;-75
2022/07/27 12:08:25;;;;;;;5.50;5.20;;;23.90;1.00;;;;;;2613462;54;20381;-76
2022/07/27 12:14:13;;;;;;;5.87;5.40;;;23.10;1.00;;;;;;2611270;54;20472;-75
2022/07/27 12:20:01;;;;;;;5.63;5.23;;;23.60;1.00;;;;;;2610324;54;20122;-75
2022/07/27 12:25:49;;;;;;;6.43;5.50;;;24.00;1.00;;;;;;2612645;54;20167;-76
2022/07/27 12:41:41;;;;;;;6.00;5.70;;;22.60;1.00;;;;;;2612511;54;20512;-74
2022/07/27 12:53:39;;;;;;;6.67;6.03;;;21.60;1.00;;;;;;2613011;54;20391;-75
2022/07/27 12:59:27;;;;;;;6.43;6.13;;;21.40;1.00;;;;;;2613739;54;20581;-73
2022/07/27 13:05:15;;;;;;;5.80;5.40;;;20.90;1.00;;;;;;2613140;54;20138;-74
2022/07/27 13:11:03;;;;;;;6.27;5.90;;;21.60;1.00;;;;;;2614613;54;20379;-75
2022/07/27 13:16:51;;;;;;;6.17;5.70;;;23.80;1.00;;;;;;2614744;54;20143;-74
2022/07/27 13:22:40;;;;;;;6.20;5.90;;;24.60;1.00;;;;;;2615060;39;20950;-75
2022/07/27 13:28:28;;;;;;;8.27;6.53;;;24.60;1.00;;;;;;2614278;54;20397;-75
2022/07/27 13:34:16;;;;;;;6.40;5.83;;;24.60;1.00;;;;;;2614336;54;20187;-74
2022/07/27 13:40:04;;;;;;;6.20;5.87;;;24.00;1.00;;;;;;2612810;54;20150;-75
2022/07/27 13:45:52;;;;;;;6.60;6.30;;;22.80;1.00;;;;;;2615353;39;20797;-74
2022/07/27 13:51:40;;;;;;;12.03;6.37;;;22.10;1.00;;;;;;2613380;54;20162;-74
2022/07/27 13:57:28;;;;;;;5.93;5.57;;;22.00;1.00;;;;;;2614493;54;20154;-75
2022/07/27 14:03:16;;;;;;;5.90;5.50;;;21.70;1.00;;;;;;2614789;39;21175;-74
2022/07/27 14:14:51;;;;;;;6.10;5.67;;;21.70;1.00;;;;;;2615620;54;20110;-74
2022/07/27 14:20:39;;;;;;;5.83;5.43;;;21.80;1.00;;;;;;2615606;54;20250;-75
2022/07/27 14:26:26;;;;;;;5.70;5.20;;;22.20;1.00;;;;;;2615598;54;20208;-75
2022/07/27 14:32:14;;;;;;;5.67;5.27;;;22.20;1.00;;;;;;2615488;54;20227;-74
2022/07/27 14:38:02;;;;;;;5.70;5.20;;;22.60;1.00;;;;;;2613995;54;20125;-74
2022/07/27 14:43:49;;;;;;;5.63;5.33;;;22.50;1.00;;;;;;2615270;54;20271;-75
2022/07/27 14:49:37;;;;;;;5.97;5.57;;;24.40;1.00;;;;;;2615910;54;20134;-76
2022/07/27 14:55:24;;;;;;;5.60;5.20;;;24.00;1.00;;;;;;2614871;54;20454;-75
2022/07/27 15:01:12;;;;;;;5.80;5.50;;;23.60;1.00;;;;;;2615232;54;20136;-75
2022/07/27 15:07:00;;;;;;;7.10;6.10;;;22.00;1.00;;;;;;2615513;54;20240;-75
2022/07/27 15:16:10;;;;;;;6.00;5.40;;;21.60;1.00;;;;;;2615415;54;20419;-74
2022/07/27 15:21:58;;;;;;;6.00;5.60;;;21.60;1.00;;;;;;2615028;54;20539;-75
2022/07/27 15:27:46;;;;;;;5.80;5.50;;;21.70;1.00;;;;;;2615546;54;20747;-74
2022/07/27 15:33:33;;;;;;;6.20;5.73;;;21.60;1.00;;;;;;2615342;39;20732;-75
2022/07/27 15:39:22;;;;;;;6.77;5.37;;;22.10;1.00;;;;;;2614881;54;20160;-75
2022/07/27 15:45:10;;;;;;;6.20;5.80;;;22.10;1.00;;;;;;2614718;54;20395;-74
2022/07/27 15:50:58;;;;;;;6.07;5.77;;;22.20;1.00;;;;;;2615489;54;20401;-75
2022/07/27 15:56:47;;;;;;;6.17;5.77;;;24.60;1.00;;;;;;2615256;54;20177;-75
2022/07/27 16:02:35;;;;;;;5.57;5.17;;;25.90;1.00;;;;;;2615322;54;20500;-74
2022/07/27 16:08:24;;;;;;;5.97;5.67;;;25.70;1.00;;;;;;2615456;54;20115;-76
2022/07/27 16:11:30;;;;;;;5.80;5.43;;;25.30;1.00;;;;;;2613408;54;20515;-75
2022/07/27 16:13:56;;;;;;;6.43;5.80;;;26.10;1.00;;;;;;2614575;47;20987;-75
2022/07/27 16:19:44;;;;;;;5.70;5.20;;;25.70;1.00;;;;;;2615935;54;20982;-75
2022/07/27 16:25:32;;;;;;;5.40;5.10;;;23.60;1.00;;;;;;2615365;39;20527;-75
2022/07/27 16:31:20;;;;;;;6.00;5.60;;;22.50;1.00;;;;;;2614818;54;20250;-75
2022/07/27 16:37:07;;;;;;;5.90;5.60;;;23.20;1.00;;;;;;2614485;54;20150;-74
2022/07/27 16:42:55;;;;;;;6.53;6.03;;;24.00;1.00;;;;;;2615167;54;20195;-76
2022/07/27 16:48:43;;;;;;;5.60;5.30;;;23.60;1.00;;;;;;2615174;54;20119;-75
2022/07/27 16:54:31;;;;;;;6.60;5.90;;;25.20;1.00;;;;;;2615126;54;20407;-75
2022/07/27 17:00:19;;;;;;;6.53;5.93;;;22.40;1.00;;;;;;2615585;54;20151;-74
2022/07/27 17:06:07;;;;;;;6.17;5.77;;;21.60;1.00;;;;;;2614302;46;20411;-74
2022/07/27 17:16:04;;;;;;;6.40;6.03;;;21.10;1.00;;;;;;2615239;54;20428;-75
2022/07/27 17:21:52;;;;;;;6.13;5.70;;;20.90;1.00;;;;;;2614783;54;20452;-75
2022/07/27 17:27:40;;;;;;;7.40;6.70;;;20.90;1.00;;;;;;2614956;54;20151;-75
2022/07/27 17:33:28;;;;;;;6.67;6.27;;;20.60;1.00;;;;;;2614767;54;20659;-75
2022/07/27 17:39:16;;;;;;;5.93;5.63;;;20.60;1.00;;;;;;2613747;54;20122;-75
2022/07/27 17:45:05;;;;;;;6.23;5.80;;;20.40;1.00;;;;;;2615409;46;20420;-75
2022/07/27 17:50:52;;;;;;;5.80;5.40;;;20.20;1.00;;;;;;2615656;39;20576;-75
2022/07/27 17:56:40;;;;;;;5.90;5.60;;;20.10;1.00;;;;;;2615798;54;20158;-75
2022/07/27 18:02:28;;;;;;;6.00;5.50;;;19.90;1.00;;;;;;2616685;39;20775;-74
2022/07/27 18:08:16;;;;;;;5.87;5.37;;;19.90;1.00;;;;;;2614992;54;20110;-75
2022/07/27 18:14:16;;;;;;;6.93;6.23;;;19.90;1.00;;;;;;2614506;54;20144;-75
2022/07/27 18:20:08;;;;;;;5.70;5.30;;;20.00;1.00;;;;;;2614655;54;20161;-75
2022/07/27 18:25:55;;;;;;;5.90;5.50;;;20.00;1.00;;;;;;2613946;54;20379;-76
2022/07/27 18:31:43;;;;;;;5.90;5.13;;;19.90;1.00;;;;;;2614725;54;20379;-74
2022/07/27 18:37:30;;;;;;;5.70;5.33;;;19.90;1.00;;;;;;2613951;54;20131;-73
2022/07/27 18:43:17;;;;;;;5.40;5.10;;;19.80;1.00;;;;;;2614921;39;20544;-76
2022/07/27 18:49:04;;;;;;;5.73;5.37;;;19.70;1.00;;;;;;2613325;54;20126;-75
2022/07/27 18:54:52;;;;;;;6.33;5.90;;;19.50;1.00;;;;;;2615313;54;20118;-75
2022/07/27 19:00:39;;;;;;;6.23;5.40;;;19.40;1.00;;;;;;2615445;54;20170;-75
2022/07/27 19:06:27;;;;;;;6.10;5.50;;;19.20;1.00;;;;;;2614381;54;20153;-75
2022/07/27 19:16:05;;;;;;;7.23;6.73;;;19.00;1.00;;;;;;2615761;54;20570;-75
2022/07/27 19:21:53;;;;;;;6.63;6.23;;;18.80;1.00;;;;;;2615249;54;20973;-76
2022/07/27 19:27:41;;;;;;;6.13;5.80;;;18.70;1.00;;;;;;2615267;54;20160;-76
2022/07/27 19:33:30;;;;;;;6.57;6.10;;;18.50;1.90;;;;;;2615270;54;20397;-76
2022/07/27 19:39:18;;;;;;;5.83;5.43;;;18.40;5.20;;;;;;2616032;39;20804;-75
2022/07/27 19:45:06;;;;;;;5.87;5.37;;;18.30;6.20;;;;;;2614748;54;20780;-75
2022/07/27 19:50:58;;;;;;;5.63;5.03;;;18.10;7.80;;;;;;2615102;54;21250;-74
2022/07/27 19:56:46;;;;;;;6.70;5.50;;;17.90;10.40;;;;;;2615488;54;20488;-75
2022/07/27 20:02:34;;;;;;;7.67;5.90;;;17.70;13.50;;;;;;2615443;54;21202;-75
2022/07/27 20:08:22;;;;;;;6.53;5.90;;;17.30;19.70;;;;;;2614891;54;20144;-74
2022/07/27 20:11:33;;;;;;;6.10;5.60;;;17.20;23.00;;;;;;2615099;54;20962;-75
2022/07/27 20:14:01;;;;;;;7.00;5.13;;;17.10;25.00;;;;;;2615019;54;20213;-75
2022/07/27 20:19:48;;;;;;;6.00;5.50;;;16.80;32.40;;;;;;2614675;54;20481;-76
2022/07/27 20:25:36;;;;;;;10.13;5.60;;;16.60;38.30;;;;;;2614913;54;20147;-75
2022/07/27 20:31:24;;;;;;;5.77;5.17;;;16.40;43.30;;;;;;2615080;54;20162;-75
2022/07/27 20:37:12;;;;;;;8.23;7.50;;;16.40;54.70;;;;;;2615585;54;20388;-76
2022/07/27 20:43:00;;;;;;;8.40;7.70;;;16.00;60.20;;;;;;2614843;54;20131;-74
2022/07/27 20:48:48;;;;;;;6.57;6.03;;;15.90;68.40;;;;;;2615274;54;20635;-75
2022/07/27 20:54:37;;;;;;;6.70;5.47;;;15.90;75.50;;;;;;2614175;54;20171;-74
2022/07/27 21:00:25;;;;;;;5.87;5.27;;;16.00;63.90;;;;;;2614897;54;20427;-76
2022/07/27 21:06:12;;;;;;;7.90;4.57;;;16.10;55.40;;;;;;2612748;54;20415;-76
2022/07/27 21:16:03;;;;;;;5.47;4.90;;;16.30;53.00;;;;;;2615090;54;20372;-75
2022/07/27 21:21:51;;;;;;;9.67;5.27;;;16.20;51.50;;;;;;2613804;31;20987;-73
2022/07/27 21:31:01;;;;;;;10.00;4.77;;;16.10;50.90;;;;;;2608486;54;20380;-74
2022/07/27 21:36:49;;;;;;;4.97;4.50;;;16.00;51.30;;;;;;2613173;54;20425;-77
2022/07/27 21:42:37;;;;;;;4.63;4.23;;;16.00;51.70;;;;;;2613930;54;20147;-74
2022/07/27 21:48:25;;;;;;;5.17;4.67;;;15.90;55.10;;;;;;2613753;54;20138;-74
2022/07/27 21:54:12;;;;;;;4.80;4.50;;;15.80;57.30;;;;;;2609361;54;20161;-74
2022/07/27 22:00:00;;;;;;;5.60;5.20;;;15.80;57.20;;;;;;2614977;54;20154;-74
2022/07/27 22:05:48;;;;;;;5.23;4.33;;;15.70;59.60;;;;;;2613954;54;20226;-75
2022/07/27 22:11:36;;;;;;;5.10;4.60;;;15.60;57.40;;;;;;2612270;54;20749;-74
2022/07/27 22:17:24;;;;;;;4.30;4.10;;;15.60;54.80;;;;;;2614788;39;20525;-74
2022/07/27 22:23:12;;;;;;;5.00;4.50;;;15.50;54.90;;;;;;2614273;54;20387;-75
2022/07/27 22:32:22;;;;;;;5.40;4.90;;;15.40;58.80;;;;;;2613257;54;20392;-74
2022/07/27 22:38:10;;;;;;;5.20;4.60;;;15.30;58.00;;;;;;2611822;54;20416;-74
2022/07/27 22:43:58;;;;;;;4.93;4.67;;;15.10;61.30;;;;;;2614795;39;20784;-74
2022/07/27 22:49:46;;;;;;;4.47;4.20;;;15.10;61.20;;;;;;2614882;54;20179;-74
2022/07/27 22:55:36;;;;;;;4.77;4.20;;;15.00;64.20;;;;;;2615965;39;20525;-74
2022/07/27 23:01:24;;;;;;;4.43;4.03;;;14.80;68.20;;;;;;2613025;54;20342;-75
2022/07/27 23:07:12;;;;;;;4.77;4.37;;;14.80;69.10;;;;;;2612828;54;20152;-73
2022/07/27 23:12:59;;;;;;;4.50;4.30;;;14.80;69.60;;;;;;2611433;54;20158;-75
2022/07/27 23:18:47;;;;;;;5.13;4.67;;;14.80;70.50;;;;;;2613599;54;20134;-75
2022/07/27 23:24:35;;;;;;;4.80;4.47;;;14.80;69.90;;;;;;2614747;54;20122;-75
2022/07/27 23:27:54;;;;;;;4.77;4.37;;;14.70;70.60;;;;;;2614481;54;20400;-73
2022/07/27 23:30:20;;;;;;;5.33;4.67;;;14.70;74.50;;;;;;2614649;39;21088;-73
2022/07/27 23:36:09;;;;;;;5.03;4.53;;;14.50;77.90;;;;;;2614537;46;20154;-74
2022/07/27 23:41:57;;;;;;;5.47;4.50;;;14.50;79.40;;;;;;2614395;54;20396;-74
2022/07/27 23:47:45;;;;;;;6.10;4.33;;;14.50;79.00;;;;;;2614552;54;20130;-75
2022/07/27 23:53:32;;;;;;;4.90;4.50;;;14.50;79.20;;;;;;2612613;54;20391;-74
2022/07/27 23:59:20;;;;;;;4.90;4.50;;;14.40;83.40;;;;;;2614538;54;20151;-74
